sensor_id;sensor_type;location;lat;lon;timestamp;P1;durP1;ratioP1;P2;durP2;ratioP2
38911;SDS011;28444;48.056;14.408;2023-06-26T00:01:39;14.55;;;9.68;;
38911;SDS011;28444;48.056;14.408;2023-06-26T00:04:26;12.98;;;8.50;;
38911;SDS011;28444;48.056;14.408;2023-06-26T00:07:13;12.98;;;9.57;;
38911;SDS011;28444;48.056;14.408;2023-06-26T00:10:01;16.40;;;8.73;;
38911;SDS011;28444;48.056;14.408;2023-06-26T00:12:49;17.67;;;9.30;;
38911;SDS011;28444;48.056;14.408;2023-06-26T00:15:36;12.50;;;8.82;;
38911;SDS011;28444;48.056;14.408;2023-06-26T00:18:23;18.88;;;8.73;;
38911;SDS011;28444;48.056;14.408;2023-06-26T00:21:10;16.45;;;9.20;;
38911;SDS011;28444;48.056;14.408;2023-06-26T00:23:57;16.27;;;8.93;;
38911;SDS011;28444;48.056;14.408;2023-06-26T00:26:46;15.93;;;8.35;;
38911;SDS011;28444;48.056;14.408;2023-06-26T00:29:33;16.02;;;10.48;;
38911;SDS011;28444;48.056;14.408;2023-06-26T00:32:20;21.30;;;9.55;;
38911;SDS011;28444;48.056;14.408;2023-06-26T00:35:07;14.32;;;9.07;;
38911;SDS011;28444;48.056;14.408;2023-06-26T00:37:54;13.25;;;8.68;;
38911;SDS011;28444;48.056;14.408;2023-06-26T00:40:41;17.33;;;10.43;;
38911;SDS011;28444;48.056;14.408;2023-06-26T00:43:28;17.77;;;9.82;;
38911;SDS011;28444;48.056;14.408;2023-06-26T00:46:15;11.88;;;8.07;;
38911;SDS011;28444;48.056;14.408;2023-06-26T00:49:02;13.93;;;8.75;;
38911;SDS011;28444;48.056;14.408;2023-06-26T00:51:50;14.82;;;8.70;;
38911;SDS011;28444;48.056;14.408;2023-06-26T00:54:37;13.68;;;9.00;;
38911;SDS011;28444;48.056;14.408;2023-06-26T00:57:24;14.38;;;8.50;;
38911;SDS011;28444;48.056;14.408;2023-06-26T01:00:11;15.43;;;8.88;;
38911;SDS011;28444;48.056;14.408;2023-06-26T01:02:59;11.80;;;9.15;;
38911;SDS011;28444;48.056;14.408;2023-06-26T01:05:47;17.75;;;8.55;;
38911;SDS011;28444;48.056;14.408;2023-06-26T01:08:37;12.50;;;8.70;;
38911;SDS011;28444;48.056;14.408;2023-06-26T01:11:25;13.77;;;8.73;;
38911;SDS011;28444;48.056;14.408;2023-06-26T01:14:12;13.20;;;8.80;;
38911;SDS011;28444;48.056;14.408;2023-06-26T01:17:00;17.75;;;8.50;;
38911;SDS011;28444;48.056;14.408;2023-06-26T01:19:48;18.63;;;9.38;;
38911;SDS011;28444;48.056;14.408;2023-06-26T01:29:08;15.27;;;9.25;;
38911;SDS011;28444;48.056;14.408;2023-06-26T01:31:57;12.65;;;9.05;;
38911;SDS011;28444;48.056;14.408;2023-06-26T01:34:44;13.90;;;8.63;;
38911;SDS011;28444;48.056;14.408;2023-06-26T01:37:32;17.98;;;10.85;;
38911;SDS011;28444;48.056;14.408;2023-06-26T01:40:18;13.82;;;8.68;;
38911;SDS011;28444;48.056;14.408;2023-06-26T01:43:06;13.55;;;7.93;;
38911;SDS011;28444;48.056;14.408;2023-06-26T01:46:21;13.65;;;9.07;;
38911;SDS011;28444;48.056;14.408;2023-06-26T01:58:23;18.77;;;9.98;;
38911;SDS011;28444;48.056;14.408;2023-06-26T02:01:12;17.38;;;8.52;;
38911;SDS011;28444;48.056;14.408;2023-06-26T02:03:59;10.75;;;8.38;;
38911;SDS011;28444;48.056;14.408;2023-06-26T02:06:46;15.02;;;9.55;;
38911;SDS011;28444;48.056;14.408;2023-06-26T02:09:33;13.68;;;9.05;;
38911;SDS011;28444;48.056;14.408;2023-06-26T02:12:20;14.25;;;9.70;;
38911;SDS011;28444;48.056;14.408;2023-06-26T02:15:07;12.18;;;8.73;;
38911;SDS011;28444;48.056;14.408;2023-06-26T02:17:55;15.27;;;8.90;;
38911;SDS011;28444;48.056;14.408;2023-06-26T02:20:42;12.45;;;9.23;;
38911;SDS011;28444;48.056;14.408;2023-06-26T02:23:30;13.52;;;8.57;;
38911;SDS011;28444;48.056;14.408;2023-06-26T02:26:17;13.38;;;8.73;;
38911;SDS011;28444;48.056;14.408;2023-06-26T02:29:04;20.85;;;9.00;;
38911;SDS011;28444;48.056;14.408;2023-06-26T02:31:51;15.18;;;9.50;;
38911;SDS011;28444;48.056;14.408;2023-06-26T02:34:38;16.17;;;8.65;;
38911;SDS011;28444;48.056;14.408;2023-06-26T02:37:25;14.80;;;9.35;;
38911;SDS011;28444;48.056;14.408;2023-06-26T02:40:12;18.75;;;9.45;;
38911;SDS011;28444;48.056;14.408;2023-06-26T02:42:59;21.67;;;9.85;;
38911;SDS011;28444;48.056;14.408;2023-06-26T02:45:46;14.98;;;8.43;;
38911;SDS011;28444;48.056;14.408;2023-06-26T02:48:33;17.30;;;8.85;;
38911;SDS011;28444;48.056;14.408;2023-06-26T02:51:20;19.45;;;10.13;;
38911;SDS011;28444;48.056;14.408;2023-06-26T02:54:07;17.48;;;9.27;;
38911;SDS011;28444;48.056;14.408;2023-06-26T02:56:54;15.57;;;9.52;;
38911;SDS011;28444;48.056;14.408;2023-06-26T02:59:40;14.77;;;9.48;;
38911;SDS011;28444;48.056;14.408;2023-06-26T03:02:27;13.75;;;8.85;;
38911;SDS011;28444;48.056;14.408;2023-06-26T03:05:14;14.60;;;9.68;;
38911;SDS011;28444;48.056;14.408;2023-06-26T03:08:04;13.85;;;8.73;;
38911;SDS011;28444;48.056;14.408;2023-06-26T03:10:51;13.70;;;9.43;;
38911;SDS011;28444;48.056;14.408;2023-06-26T03:13:38;18.80;;;8.70;;
38911;SDS011;28444;48.056;14.408;2023-06-26T03:16:25;15.43;;;9.55;;
38911;SDS011;28444;48.056;14.408;2023-06-26T03:19:12;15.45;;;10.00;;
38911;SDS011;28444;48.056;14.408;2023-06-26T03:21:59;17.65;;;9.80;;
38911;SDS011;28444;48.056;14.408;2023-06-26T03:24:46;13.68;;;9.38;;
38911;SDS011;28444;48.056;14.408;2023-06-26T03:27:33;13.75;;;9.18;;
38911;SDS011;28444;48.056;14.408;2023-06-26T03:30:20;13.07;;;9.05;;
38911;SDS011;28444;48.056;14.408;2023-06-26T03:33:07;17.45;;;8.52;;
38911;SDS011;28444;48.056;14.408;2023-06-26T03:35:54;16.58;;;8.13;;
38911;SDS011;28444;48.056;14.408;2023-06-26T03:38:41;15.25;;;8.65;;
38911;SDS011;28444;48.056;14.408;2023-06-26T03:41:28;15.18;;;9.05;;
38911;SDS011;28444;48.056;14.408;2023-06-26T03:44:15;14.15;;;8.85;;
38911;SDS011;28444;48.056;14.408;2023-06-26T03:47:03;11.93;;;7.63;;
38911;SDS011;28444;48.056;14.408;2023-06-26T03:49:50;14.35;;;8.25;;
38911;SDS011;28444;48.056;14.408;2023-06-26T03:52:37;15.57;;;9.13;;
38911;SDS011;28444;48.056;14.408;2023-06-26T03:55:24;13.90;;;9.43;;
38911;SDS011;28444;48.056;14.408;2023-06-26T03:58:11;17.90;;;9.52;;
38911;SDS011;28444;48.056;14.408;2023-06-26T04:00:58;14.35;;;9.00;;
38911;SDS011;28444;48.056;14.408;2023-06-26T04:03:45;17.45;;;9.48;;
38911;SDS011;28444;48.056;14.408;2023-06-26T04:06:32;16.05;;;10.23;;
38911;SDS011;28444;48.056;14.408;2023-06-26T04:09:19;13.07;;;9.68;;
38911;SDS011;28444;48.056;14.408;2023-06-26T04:12:06;12.57;;;9.00;;
38911;SDS011;28444;48.056;14.408;2023-06-26T04:14:53;16.05;;;9.38;;
38911;SDS011;28444;48.056;14.408;2023-06-26T04:17:40;12.07;;;8.90;;
38911;SDS011;28444;48.056;14.408;2023-06-26T04:20:27;16.38;;;8.98;;
38911;SDS011;28444;48.056;14.408;2023-06-26T04:23:14;17.17;;;10.27;;
38911;SDS011;28444;48.056;14.408;2023-06-26T04:26:01;14.93;;;9.40;;
38911;SDS011;28444;48.056;14.408;2023-06-26T04:28:49;13.75;;;8.77;;
38911;SDS011;28444;48.056;14.408;2023-06-26T04:31:36;14.60;;;9.18;;
38911;SDS011;28444;48.056;14.408;2023-06-26T04:34:26;16.75;;;9.40;;
38911;SDS011;28444;48.056;14.408;2023-06-26T04:37:14;13.18;;;9.27;;
38911;SDS011;28444;48.056;14.408;2023-06-26T04:40:04;15.52;;;9.00;;
38911;SDS011;28444;48.056;14.408;2023-06-26T04:42:52;11.77;;;8.90;;
38911;SDS011;28444;48.056;14.408;2023-06-26T04:45:39;19.55;;;9.65;;
38911;SDS011;28444;48.056;14.408;2023-06-26T04:48:26;18.42;;;9.65;;
38911;SDS011;28444;48.056;14.408;2023-06-26T04:51:14;16.42;;;10.10;;
38911;SDS011;28444;48.056;14.408;2023-06-26T04:54:01;16.38;;;10.38;;
38911;SDS011;28444;48.056;14.408;2023-06-26T04:56:48;13.43;;;10.13;;
38911;SDS011;28444;48.056;14.408;2023-06-26T04:59:34;12.98;;;9.15;;
38911;SDS011;28444;48.056;14.408;2023-06-26T05:02:21;13.45;;;9.50;;
38911;SDS011;28444;48.056;14.408;2023-06-26T05:05:08;13.48;;;9.32;;
38911;SDS011;28444;48.056;14.408;2023-06-26T05:07:56;14.70;;;10.45;;
38911;SDS011;28444;48.056;14.408;2023-06-26T05:10:43;15.38;;;10.00;;
38911;SDS011;28444;48.056;14.408;2023-06-26T05:13:31;13.60;;;9.50;;
38911;SDS011;28444;48.056;14.408;2023-06-26T05:16:18;17.38;;;9.27;;
38911;SDS011;28444;48.056;14.408;2023-06-26T05:19:05;16.67;;;10.80;;
38911;SDS011;28444;48.056;14.408;2023-06-26T05:21:52;15.68;;;8.98;;
38911;SDS011;28444;48.056;14.408;2023-06-26T05:24:39;15.73;;;9.13;;
38911;SDS011;28444;48.056;14.408;2023-06-26T05:27:27;17.38;;;11.13;;
38911;SDS011;28444;48.056;14.408;2023-06-26T05:30:14;16.27;;;10.45;;
38911;SDS011;28444;48.056;14.408;2023-06-26T05:33:02;14.82;;;9.52;;
38911;SDS011;28444;48.056;14.408;2023-06-26T05:35:50;17.52;;;9.95;;
38911;SDS011;28444;48.056;14.408;2023-06-26T05:38:38;14.95;;;10.10;;
38911;SDS011;28444;48.056;14.408;2023-06-26T05:41:26;13.80;;;10.05;;
38911;SDS011;28444;48.056;14.408;2023-06-26T05:44:13;14.13;;;10.25;;
38911;SDS011;28444;48.056;14.408;2023-06-26T05:47:00;13.63;;;9.20;;
38911;SDS011;28444;48.056;14.408;2023-06-26T05:49:47;15.52;;;9.63;;
38911;SDS011;28444;48.056;14.408;2023-06-26T05:52:34;10.75;;;8.40;;
38911;SDS011;28444;48.056;14.408;2023-06-26T05:55:22;15.07;;;9.02;;
38911;SDS011;28444;48.056;14.408;2023-06-26T05:58:12;11.45;;;8.70;;
38911;SDS011;28444;48.056;14.408;2023-06-26T06:00:59;14.00;;;9.55;;
38911;SDS011;28444;48.056;14.408;2023-06-26T06:03:46;10.60;;;9.15;;
38911;SDS011;28444;48.056;14.408;2023-06-26T06:06:34;13.18;;;8.75;;
38911;SDS011;28444;48.056;14.408;2023-06-26T06:09:21;14.73;;;8.43;;
38911;SDS011;28444;48.056;14.408;2023-06-26T06:12:08;14.90;;;10.40;;
38911;SDS011;28444;48.056;14.408;2023-06-26T06:14:55;16.58;;;9.82;;
38911;SDS011;28444;48.056;14.408;2023-06-26T06:17:43;17.48;;;9.85;;
38911;SDS011;28444;48.056;14.408;2023-06-26T06:20:29;14.02;;;9.15;;
38911;SDS011;28444;48.056;14.408;2023-06-26T06:23:16;17.08;;;10.30;;
38911;SDS011;28444;48.056;14.408;2023-06-26T06:26:03;11.68;;;8.50;;
38911;SDS011;28444;48.056;14.408;2023-06-26T06:28:50;12.05;;;9.40;;
38911;SDS011;28444;48.056;14.408;2023-06-26T06:31:37;12.85;;;9.30;;
38911;SDS011;28444;48.056;14.408;2023-06-26T06:34:24;14.55;;;9.80;;
38911;SDS011;28444;48.056;14.408;2023-06-26T06:37:11;16.67;;;9.25;;
38911;SDS011;28444;48.056;14.408;2023-06-26T06:39:58;12.98;;;9.07;;
38911;SDS011;28444;48.056;14.408;2023-06-26T06:42:46;11.20;;;8.25;;
38911;SDS011;28444;48.056;14.408;2023-06-26T06:45:33;13.43;;;9.60;;
38911;SDS011;28444;48.056;14.408;2023-06-26T06:48:20;13.52;;;9.18;;
38911;SDS011;28444;48.056;14.408;2023-06-26T06:51:07;10.82;;;9.35;;
38911;SDS011;28444;48.056;14.408;2023-06-26T06:53:55;15.07;;;8.52;;
38911;SDS011;28444;48.056;14.408;2023-06-26T06:56:43;12.60;;;9.40;;
38911;SDS011;28444;48.056;14.408;2023-06-26T06:59:30;15.65;;;9.10;;
38911;SDS011;28444;48.056;14.408;2023-06-26T07:02:17;11.60;;;8.43;;
38911;SDS011;28444;48.056;14.408;2023-06-26T07:05:04;15.68;;;9.48;;
38911;SDS011;28444;48.056;14.408;2023-06-26T07:07:51;14.98;;;9.07;;
38911;SDS011;28444;48.056;14.408;2023-06-26T07:10:38;13.07;;;9.10;;
38911;SDS011;28444;48.056;14.408;2023-06-26T07:13:26;10.68;;;9.23;;
38911;SDS011;28444;48.056;14.408;2023-06-26T07:16:13;13.63;;;9.32;;
38911;SDS011;28444;48.056;14.408;2023-06-26T07:19:02;14.32;;;9.25;;
38911;SDS011;28444;48.056;14.408;2023-06-26T07:21:49;10.98;;;8.43;;
38911;SDS011;28444;48.056;14.408;2023-06-26T07:24:36;14.32;;;8.07;;
38911;SDS011;28444;48.056;14.408;2023-06-26T07:27:23;12.90;;;9.82;;
38911;SDS011;28444;48.056;14.408;2023-06-26T07:30:10;11.35;;;8.40;;
38911;SDS011;28444;48.056;14.408;2023-06-26T07:32:57;13.15;;;10.15;;
38911;SDS011;28444;48.056;14.408;2023-06-26T07:35:44;12.82;;;10.18;;
38911;SDS011;28444;48.056;14.408;2023-06-26T07:38:31;15.70;;;8.93;;
38911;SDS011;28444;48.056;14.408;2023-06-26T07:41:19;13.05;;;9.20;;
38911;SDS011;28444;48.056;14.408;2023-06-26T07:44:06;17.55;;;10.10;;
38911;SDS011;28444;48.056;14.408;2023-06-26T07:46:53;14.40;;;9.23;;
38911;SDS011;28444;48.056;14.408;2023-06-26T07:49:40;13.48;;;9.85;;
38911;SDS011;28444;48.056;14.408;2023-06-26T07:52:27;12.52;;;8.55;;
38911;SDS011;28444;48.056;14.408;2023-06-26T07:55:14;11.93;;;8.45;;
38911;SDS011;28444;48.056;14.408;2023-06-26T07:58:01;12.60;;;8.35;;
38911;SDS011;28444;48.056;14.408;2023-06-26T08:00:48;12.38;;;8.30;;
38911;SDS011;28444;48.056;14.408;2023-06-26T08:03:35;14.43;;;9.27;;
38911;SDS011;28444;48.056;14.408;2023-06-26T08:06:22;14.48;;;9.35;;
38911;SDS011;28444;48.056;14.408;2023-06-26T08:09:10;14.15;;;9.77;;
38911;SDS011;28444;48.056;14.408;2023-06-26T08:11:59;14.00;;;8.70;;
38911;SDS011;28444;48.056;14.408;2023-06-26T08:14:46;11.13;;;8.95;;
38911;SDS011;28444;48.056;14.408;2023-06-26T08:17:32;10.40;;;7.93;;
38911;SDS011;28444;48.056;14.408;2023-06-26T08:20:20;9.88;;;7.50;;
38911;SDS011;28444;48.056;14.408;2023-06-26T08:23:07;13.15;;;8.90;;
38911;SDS011;28444;48.056;14.408;2023-06-26T08:25:54;14.20;;;8.13;;
38911;SDS011;28444;48.056;14.408;2023-06-26T08:28:41;13.23;;;9.65;;
38911;SDS011;28444;48.056;14.408;2023-06-26T08:31:27;14.75;;;9.40;;
38911;SDS011;28444;48.056;14.408;2023-06-26T08:34:14;12.63;;;8.95;;
38911;SDS011;28444;48.056;14.408;2023-06-26T08:37:01;11.35;;;8.18;;
38911;SDS011;28444;48.056;14.408;2023-06-26T08:39:49;11.38;;;9.45;;
38911;SDS011;28444;48.056;14.408;2023-06-26T08:42:36;12.40;;;8.70;;
38911;SDS011;28444;48.056;14.408;2023-06-26T08:45:23;14.38;;;9.43;;
38911;SDS011;28444;48.056;14.408;2023-06-26T08:48:10;11.40;;;9.15;;
38911;SDS011;28444;48.056;14.408;2023-06-26T08:50:57;12.43;;;9.30;;
38911;SDS011;28444;48.056;14.408;2023-06-26T08:53:58;13.02;;;9.38;;
38911;SDS011;28444;48.056;14.408;2023-06-26T08:56:46;10.52;;;8.88;;
38911;SDS011;28444;48.056;14.408;2023-06-26T08:59:36;12.13;;;9.18;;
38911;SDS011;28444;48.056;14.408;2023-06-26T09:02:23;11.27;;;9.40;;
38911;SDS011;28444;48.056;14.408;2023-06-26T09:05:10;13.20;;;7.97;;
38911;SDS011;28444;48.056;14.408;2023-06-26T09:07:57;13.65;;;9.48;;
38911;SDS011;28444;48.056;14.408;2023-06-26T09:10:45;15.95;;;8.73;;
38911;SDS011;28444;48.056;14.408;2023-06-26T09:13:32;12.73;;;9.05;;
38911;SDS011;28444;48.056;14.408;2023-06-26T09:16:23;14.20;;;9.55;;
38911;SDS011;28444;48.056;14.408;2023-06-26T09:19:13;13.32;;;9.23;;
38911;SDS011;28444;48.056;14.408;2023-06-26T09:22:01;11.93;;;8.88;;
38911;SDS011;28444;48.056;14.408;2023-06-26T09:24:48;12.57;;;8.85;;
38911;SDS011;28444;48.056;14.408;2023-06-26T09:27:35;14.30;;;8.98;;
38911;SDS011;28444;48.056;14.408;2023-06-26T09:30:22;10.70;;;8.85;;
38911;SDS011;28444;48.056;14.408;2023-06-26T09:33:16;13.93;;;9.35;;
38911;SDS011;28444;48.056;14.408;2023-06-26T09:36:08;12.40;;;8.30;;
38911;SDS011;28444;48.056;14.408;2023-06-26T09:39:02;14.98;;;8.57;;
38911;SDS011;28444;48.056;14.408;2023-06-26T09:41:58;11.27;;;9.52;;
38911;SDS011;28444;48.056;14.408;2023-06-26T09:44:46;10.80;;;9.00;;
38911;SDS011;28444;48.056;14.408;2023-06-26T09:47:38;12.13;;;8.35;;
38911;SDS011;28444;48.056;14.408;2023-06-26T09:50:32;10.93;;;8.02;;
38911;SDS011;28444;48.056;14.408;2023-06-26T09:53:25;11.65;;;8.70;;
38911;SDS011;28444;48.056;14.408;2023-06-26T09:56:15;9.88;;;8.52;;
38911;SDS011;28444;48.056;14.408;2023-06-26T09:59:05;10.48;;;8.18;;
38911;SDS011;28444;48.056;14.408;2023-06-26T10:01:58;11.85;;;8.18;;
38911;SDS011;28444;48.056;14.408;2023-06-26T10:04:46;12.20;;;8.07;;
38911;SDS011;28444;48.056;14.408;2023-06-26T10:07:34;16.30;;;8.40;;
38911;SDS011;28444;48.056;14.408;2023-06-26T10:10:22;9.65;;;7.95;;
38911;SDS011;28444;48.056;14.408;2023-06-26T10:13:13;8.73;;;7.57;;
38911;SDS011;28444;48.056;14.408;2023-06-26T10:16:03;11.10;;;8.43;;
38911;SDS011;28444;48.056;14.408;2023-06-26T10:18:56;11.13;;;8.65;;
38911;SDS011;28444;48.056;14.408;2023-06-26T10:21:48;14.48;;;7.65;;
38911;SDS011;28444;48.056;14.408;2023-06-26T10:24:35;12.50;;;8.20;;
38911;SDS011;28444;48.056;14.408;2023-06-26T10:27:24;9.50;;;7.85;;
38911;SDS011;28444;48.056;14.408;2023-06-26T10:30:16;12.57;;;7.32;;
38911;SDS011;28444;48.056;14.408;2023-06-26T10:33:07;13.02;;;8.35;;
38911;SDS011;28444;48.056;14.408;2023-06-26T10:36:11;8.95;;;7.80;;
38911;SDS011;28444;48.056;14.408;2023-06-26T10:39:05;10.57;;;7.63;;
38911;SDS011;28444;48.056;14.408;2023-06-26T10:41:56;10.73;;;8.60;;
38911;SDS011;28444;48.056;14.408;2023-06-26T10:44:55;8.55;;;6.47;;
38911;SDS011;28444;48.056;14.408;2023-06-26T10:47:55;8.40;;;6.57;;
38911;SDS011;28444;48.056;14.408;2023-06-26T10:50:47;12.63;;;7.32;;
38911;SDS011;28444;48.056;14.408;2023-06-26T10:53:35;8.90;;;6.57;;
38911;SDS011;28444;48.056;14.408;2023-06-26T10:59:48;8.55;;;6.88;;
38911;SDS011;28444;48.056;14.408;2023-06-26T11:03:08;8.32;;;7.30;;
38911;SDS011;28444;48.056;14.408;2023-06-26T11:06:18;9.75;;;7.53;;
38911;SDS011;28444;48.056;14.408;2023-06-26T11:09:08;12.18;;;7.60;;
38911;SDS011;28444;48.056;14.408;2023-06-26T11:11:58;8.60;;;6.25;;
38911;SDS011;28444;48.056;14.408;2023-06-26T11:14:48;6.88;;;6.10;;
38911;SDS011;28444;48.056;14.408;2023-06-26T11:17:35;9.30;;;6.40;;
38911;SDS011;28444;48.056;14.408;2023-06-26T11:20:23;10.52;;;6.90;;
38911;SDS011;28444;48.056;14.408;2023-06-26T11:23:10;8.35;;;6.82;;
38911;SDS011;28444;48.056;14.408;2023-06-26T11:26:12;9.50;;;7.07;;
38911;SDS011;28444;48.056;14.408;2023-06-26T11:29:02;12.07;;;7.00;;
38911;SDS011;28444;48.056;14.408;2023-06-26T11:31:49;12.50;;;6.72;;
38911;SDS011;28444;48.056;14.408;2023-06-26T11:34:48;9.70;;;6.75;;
38911;SDS011;28444;48.056;14.408;2023-06-26T11:37:35;8.57;;;6.38;;
38911;SDS011;28444;48.056;14.408;2023-06-26T11:40:23;10.60;;;7.03;;
38911;SDS011;28444;48.056;14.408;2023-06-26T11:43:13;12.60;;;7.75;;
38911;SDS011;28444;48.056;14.408;2023-06-26T11:46:01;11.05;;;7.15;;
38911;SDS011;28444;48.056;14.408;2023-06-26T11:48:48;10.57;;;6.47;;
38911;SDS011;28444;48.056;14.408;2023-06-26T11:51:36;9.98;;;6.90;;
38911;SDS011;28444;48.056;14.408;2023-06-26T11:54:26;14.40;;;7.15;;
38911;SDS011;28444;48.056;14.408;2023-06-26T11:57:13;9.80;;;6.55;;
38911;SDS011;28444;48.056;14.408;2023-06-26T12:00:14;7.95;;;7.15;;
38911;SDS011;28444;48.056;14.408;2023-06-26T12:03:02;7.35;;;6.13;;
38911;SDS011;28444;48.056;14.408;2023-06-26T12:05:50;8.13;;;6.90;;
38911;SDS011;28444;48.056;14.408;2023-06-26T12:08:39;15.30;;;6.15;;
38911;SDS011;28444;48.056;14.408;2023-06-26T12:11:26;8.15;;;6.88;;
38911;SDS011;28444;48.056;14.408;2023-06-26T12:14:16;10.38;;;6.97;;
38911;SDS011;28444;48.056;14.408;2023-06-26T12:17:14;7.05;;;5.95;;
38911;SDS011;28444;48.056;14.408;2023-06-26T12:20:00;7.65;;;6.53;;
38911;SDS011;28444;48.056;14.408;2023-06-26T12:22:48;8.77;;;6.03;;
38911;SDS011;28444;48.056;14.408;2023-06-26T12:25:35;8.02;;;6.78;;
38911;SDS011;28444;48.056;14.408;2023-06-26T12:28:22;8.45;;;6.32;;
38911;SDS011;28444;48.056;14.408;2023-06-26T12:31:15;11.63;;;6.55;;
38911;SDS011;28444;48.056;14.408;2023-06-26T12:34:08;7.55;;;5.57;;
38911;SDS011;28444;48.056;14.408;2023-06-26T12:36:59;8.93;;;6.28;;
38911;SDS011;28444;48.056;14.408;2023-06-26T12:39:55;10.25;;;6.15;;
38911;SDS011;28444;48.056;14.408;2023-06-26T12:42:47;7.50;;;6.38;;
38911;SDS011;28444;48.056;14.408;2023-06-26T12:45:37;8.75;;;6.60;;
38911;SDS011;28444;48.056;14.408;2023-06-26T12:48:40;8.77;;;6.95;;
38911;SDS011;28444;48.056;14.408;2023-06-26T12:51:30;9.02;;;6.93;;
38911;SDS011;28444;48.056;14.408;2023-06-26T12:54:17;11.38;;;6.57;;
38911;SDS011;28444;48.056;14.408;2023-06-26T12:57:04;8.50;;;7.60;;
38911;SDS011;28444;48.056;14.408;2023-06-26T12:59:52;11.13;;;6.15;;
38911;SDS011;28444;48.056;14.408;2023-06-26T13:02:39;9.25;;;6.82;;
38911;SDS011;28444;48.056;14.408;2023-06-26T13:05:26;13.20;;;7.00;;
38911;SDS011;28444;48.056;14.408;2023-06-26T13:08:13;13.82;;;7.18;;
38911;SDS011;28444;48.056;14.408;2023-06-26T13:11:03;7.85;;;6.32;;
38911;SDS011;28444;48.056;14.408;2023-06-26T13:13:50;9.95;;;6.65;;
38911;SDS011;28444;48.056;14.408;2023-06-26T13:16:56;13.55;;;6.45;;
38911;SDS011;28444;48.056;14.408;2023-06-26T13:19:43;11.73;;;6.20;;
38911;SDS011;28444;48.056;14.408;2023-06-26T13:22:30;9.98;;;6.50;;
38911;SDS011;28444;48.056;14.408;2023-06-26T13:25:17;10.20;;;6.47;;
38911;SDS011;28444;48.056;14.408;2023-06-26T13:28:04;7.32;;;6.05;;
38911;SDS011;28444;48.056;14.408;2023-06-26T13:30:51;9.55;;;6.20;;
38911;SDS011;28444;48.056;14.408;2023-06-26T13:33:38;9.77;;;6.60;;
38911;SDS011;28444;48.056;14.408;2023-06-26T13:36:25;7.45;;;6.53;;
38911;SDS011;28444;48.056;14.408;2023-06-26T13:39:12;12.98;;;7.35;;
38911;SDS011;28444;48.056;14.408;2023-06-26T13:42:00;10.85;;;7.65;;
38911;SDS011;28444;48.056;14.408;2023-06-26T13:44:47;8.70;;;6.97;;
38911;SDS011;28444;48.056;14.408;2023-06-26T13:47:48;10.57;;;6.10;;
38911;SDS011;28444;48.056;14.408;2023-06-26T13:50:35;8.00;;;6.85;;
38911;SDS011;28444;48.056;14.408;2023-06-26T13:53:39;8.40;;;6.68;;
38911;SDS011;28444;48.056;14.408;2023-06-26T13:56:26;9.27;;;6.88;;
38911;SDS011;28444;48.056;14.408;2023-06-26T13:59:13;7.53;;;6.53;;
38911;SDS011;28444;48.056;14.408;2023-06-26T14:02:01;7.53;;;6.50;;
38911;SDS011;28444;48.056;14.408;2023-06-26T14:04:48;11.48;;;6.95;;
38911;SDS011;28444;48.056;14.408;2023-06-26T14:07:35;8.82;;;6.25;;
38911;SDS011;28444;48.056;14.408;2023-06-26T14:10:22;10.02;;;7.10;;
38911;SDS011;28444;48.056;14.408;2023-06-26T14:13:10;11.73;;;7.32;;
38911;SDS011;28444;48.056;14.408;2023-06-26T14:15:58;8.48;;;7.10;;
38911;SDS011;28444;48.056;14.408;2023-06-26T14:18:45;12.77;;;7.35;;
38911;SDS011;28444;48.056;14.408;2023-06-26T14:21:32;7.95;;;7.15;;
38911;SDS011;28444;48.056;14.408;2023-06-26T14:24:20;9.52;;;6.60;;
38911;SDS011;28444;48.056;14.408;2023-06-26T14:27:06;7.18;;;6.15;;
38911;SDS011;28444;48.056;14.408;2023-06-26T14:29:53;8.80;;;7.00;;
38911;SDS011;28444;48.056;14.408;2023-06-26T14:32:40;7.63;;;6.78;;
38911;SDS011;28444;48.056;14.408;2023-06-26T14:35:27;8.43;;;6.80;;
38911;SDS011;28444;48.056;14.408;2023-06-26T14:38:14;11.13;;;7.13;;
38911;SDS011;28444;48.056;14.408;2023-06-26T14:41:01;8.25;;;6.20;;
38911;SDS011;28444;48.056;14.408;2023-06-26T14:43:48;8.77;;;6.90;;
38911;SDS011;28444;48.056;14.408;2023-06-26T14:46:36;11.98;;;6.30;;
38911;SDS011;28444;48.056;14.408;2023-06-26T14:49:23;12.50;;;6.05;;
38911;SDS011;28444;48.056;14.408;2023-06-26T14:52:10;8.40;;;5.80;;
38911;SDS011;28444;48.056;14.408;2023-06-26T14:54:57;8.20;;;6.95;;
38911;SDS011;28444;48.056;14.408;2023-06-26T14:57:44;8.57;;;6.57;;
38911;SDS011;28444;48.056;14.408;2023-06-26T15:00:31;8.80;;;6.47;;
38911;SDS011;28444;48.056;14.408;2023-06-26T15:03:18;10.60;;;7.07;;
38911;SDS011;28444;48.056;14.408;2023-06-26T15:06:05;8.35;;;6.60;;
38911;SDS011;28444;48.056;14.408;2023-06-26T15:08:52;13.10;;;5.65;;
38911;SDS011;28444;48.056;14.408;2023-06-26T15:11:39;11.25;;;6.40;;
38911;SDS011;28444;48.056;14.408;2023-06-26T15:14:26;8.77;;;6.55;;
38911;SDS011;28444;48.056;14.408;2023-06-26T15:17:13;7.55;;;6.63;;
38911;SDS011;28444;48.056;14.408;2023-06-26T15:20:00;7.35;;;6.07;;
38911;SDS011;28444;48.056;14.408;2023-06-26T15:22:47;13.10;;;5.72;;
38911;SDS011;28444;48.056;14.408;2023-06-26T15:25:33;9.57;;;6.38;;
38911;SDS011;28444;48.056;14.408;2023-06-26T15:28:23;12.18;;;6.60;;
38911;SDS011;28444;48.056;14.408;2023-06-26T15:31:09;11.85;;;6.15;;
38911;SDS011;28444;48.056;14.408;2023-06-26T15:33:56;8.75;;;6.03;;
38911;SDS011;28444;48.056;14.408;2023-06-26T15:36:43;10.45;;;6.28;;
38911;SDS011;28444;48.056;14.408;2023-06-26T15:39:30;7.57;;;6.07;;
38911;SDS011;28444;48.056;14.408;2023-06-26T15:42:17;9.25;;;6.47;;
38911;SDS011;28444;48.056;14.408;2023-06-26T15:45:05;11.57;;;6.43;;
38911;SDS011;28444;48.056;14.408;2023-06-26T15:47:52;7.75;;;6.25;;
38911;SDS011;28444;48.056;14.408;2023-06-26T15:50:40;6.55;;;5.95;;
38911;SDS011;28444;48.056;14.408;2023-06-26T15:53:44;9.18;;;6.13;;
38911;SDS011;28444;48.056;14.408;2023-06-26T15:56:31;7.95;;;6.18;;
38911;SDS011;28444;48.056;14.408;2023-06-26T15:59:18;7.45;;;5.78;;
38911;SDS011;28444;48.056;14.408;2023-06-26T16:02:05;12.00;;;5.95;;
38911;SDS011;28444;48.056;14.408;2023-06-26T16:04:52;8.30;;;6.78;;
38911;SDS011;28444;48.056;14.408;2023-06-26T16:07:39;8.95;;;6.97;;
38911;SDS011;28444;48.056;14.408;2023-06-26T16:10:43;10.07;;;6.50;;
38911;SDS011;28444;48.056;14.408;2023-06-26T16:13:30;13.50;;;7.03;;
38911;SDS011;28444;48.056;14.408;2023-06-26T16:16:17;8.15;;;6.55;;
38911;SDS011;28444;48.056;14.408;2023-06-26T16:19:04;9.77;;;6.78;;
38911;SDS011;28444;48.056;14.408;2023-06-26T16:21:52;11.48;;;6.35;;
38911;SDS011;28444;48.056;14.408;2023-06-26T16:24:38;10.10;;;6.38;;
38911;SDS011;28444;48.056;14.408;2023-06-26T16:27:25;10.38;;;5.90;;
38911;SDS011;28444;48.056;14.408;2023-06-26T16:30:12;7.18;;;6.00;;
38911;SDS011;28444;48.056;14.408;2023-06-26T16:33:00;14.60;;;6.13;;
38911;SDS011;28444;48.056;14.408;2023-06-26T16:35:47;12.32;;;6.40;;
38911;SDS011;28444;48.056;14.408;2023-06-26T16:38:34;11.48;;;6.55;;
38911;SDS011;28444;48.056;14.408;2023-06-26T16:41:20;15.43;;;6.25;;
38911;SDS011;28444;48.056;14.408;2023-06-26T16:44:07;8.95;;;6.63;;
38911;SDS011;28444;48.056;14.408;2023-06-26T16:46:57;9.48;;;6.07;;